Terminal Aerodrome Forecast
Issued by NWS

Home | Current Version | Previous Version | Graphics & Text | Print | Product List | Glossary On
Versions: 1 2 3 4 5 6 7 8 9 10 11 12 13 14 15
935
FTUS43 KMPX 130520
TAFRWF
TAF
KRWF 130520Z 1306/1406 32004KT P6SM SCT250
     FM131400 15011KT P6SM BKN120
     FM131900 15014KT P6SM OVC050
     FM140200 14017G25KT 3SM -SN OVC030=

USA.gov is the U.S. government's official web portal to all federal, state and local government web resources and services.